sensor_id;sensor_type;location;lat;lon;timestamp;pressure;altitude;pressure_sealevel;temperature;humidity
69245;BME280;56357;52.304;4.870;2023-05-23T00:02:09;102224.59;;;22.77;52.16
69245;BME280;56357;52.304;4.870;2023-05-23T00:04:37;102220.91;;;22.66;52.33
69245;BME280;56357;52.304;4.870;2023-05-23T00:07:04;102225.94;;;22.59;52.44
69245;BME280;56357;52.304;4.870;2023-05-23T00:09:30;102218.34;;;22.65;51.77
69245;BME280;56357;52.304;4.870;2023-05-23T00:11:56;102229.91;;;22.63;52.31
69245;BME280;56357;52.304;4.870;2023-05-23T00:14:23;102237.81;;;22.56;52.81
69245;BME280;56357;52.304;4.870;2023-05-23T00:16:50;102228.25;;;22.62;52.06
69245;BME280;56357;52.304;4.870;2023-05-23T00:19:16;102228.53;;;22.61;52.05
69245;BME280;56357;52.304;4.870;2023-05-23T00:21:45;102235.25;;;22.55;52.36
69245;BME280;56357;52.304;4.870;2023-05-23T00:24:13;102230.78;;;22.59;52.25
69245;BME280;56357;52.304;4.870;2023-05-23T00:26:43;102225.94;;;22.59;52.47
69245;BME280;56357;52.304;4.870;2023-05-23T00:29:10;102232.38;;;22.50;52.43
69245;BME280;56357;52.304;4.870;2023-05-23T00:31:40;102240.94;;;22.60;52.57
69245;BME280;56357;52.304;4.870;2023-05-23T00:34:07;102239.13;;;22.44;52.46
69245;BME280;56357;52.304;4.870;2023-05-23T00:36:33;102242.00;;;22.49;52.52
69245;BME280;56357;52.304;4.870;2023-05-23T00:39:02;102243.66;;;22.40;52.60
69245;BME280;56357;52.304;4.870;2023-05-23T00:41:29;102237.22;;;22.54;52.39
69245;BME280;56357;52.304;4.870;2023-05-23T00:43:56;102238.88;;;22.45;52.11
69245;BME280;56357;52.304;4.870;2023-05-23T00:46:27;102235.50;;;22.48;52.09
69245;BME280;56357;52.304;4.870;2023-05-23T00:48:53;102237.53;;;22.58;52.35
69245;BME280;56357;52.304;4.870;2023-05-23T00:51:20;102235.56;;;22.58;52.30
69245;BME280;56357;52.304;4.870;2023-05-23T00:53:48;102240.59;;;22.51;52.36
69245;BME280;56357;52.304;4.870;2023-05-23T00:56:14;102243.63;;;22.30;52.85
69245;BME280;56357;52.304;4.870;2023-05-23T00:58:41;102253.81;;;22.41;52.73
69245;BME280;56357;52.304;4.870;2023-05-23T01:01:07;102253.81;;;22.36;52.76
69245;BME280;56357;52.304;4.870;2023-05-23T01:03:33;102248.75;;;22.38;52.63
69245;BME280;56357;52.304;4.870;2023-05-23T01:06:00;102255.78;;;22.35;52.25
69245;BME280;56357;52.304;4.870;2023-05-23T01:08:28;102249.84;;;22.37;52.65
69245;BME280;56357;52.304;4.870;2023-05-23T01:10:56;102246.44;;;22.35;52.35
69245;BME280;56357;52.304;4.870;2023-05-23T01:14:06;102244.19;;;22.32;52.74
69245;BME280;56357;52.304;4.870;2023-05-23T01:16:53;102253.22;;;22.34;52.29
69245;BME280;56357;52.304;4.870;2023-05-23T01:19:50;102253.25;;;22.44;51.77
69245;BME280;56357;52.304;4.870;2023-05-23T01:25:21;102261.13;;;22.37;52.20
69245;BME280;56357;52.304;4.870;2023-05-23T01:27:58;102254.34;;;22.33;52.18
69245;BME280;56357;52.304;4.870;2023-05-23T01:30:30;102255.47;;;22.32;52.39
69245;BME280;56357;52.304;4.870;2023-05-23T01:32:58;102252.59;;;22.22;52.42
69245;BME280;56357;52.304;4.870;2023-05-23T01:35:26;102252.63;;;22.27;52.02
69245;BME280;56357;52.304;4.870;2023-05-23T01:37:56;102260.00;;;22.33;52.33
69245;BME280;56357;52.304;4.870;2023-05-23T01:40:23;102258.25;;;22.22;52.28
69245;BME280;56357;52.304;4.870;2023-05-23T01:42:51;102261.09;;;22.27;52.21
69245;BME280;56357;52.304;4.870;2023-05-23T01:45:17;102257.09;;;22.23;52.48
69245;BME280;56357;52.304;4.870;2023-05-23T01:47:46;102255.44;;;22.27;51.81
69245;BME280;56357;52.304;4.870;2023-05-23T01:50:15;102253.19;;;22.24;51.97
69245;BME280;56357;52.304;4.870;2023-05-23T01:52:42;102248.06;;;22.21;52.40
69245;BME280;56357;52.304;4.870;2023-05-23T01:55:09;102246.31;;;22.10;52.77
69245;BME280;56357;52.304;4.870;2023-05-23T01:57:38;102244.59;;;22.04;52.54
69245;BME280;56357;52.304;4.870;2023-05-23T02:00:06;102239.81;;;22.04;52.15
69245;BME280;56357;52.304;4.870;2023-05-23T02:02:35;102253.13;;;22.14;52.00
69245;BME280;56357;52.304;4.870;2023-05-23T02:05:02;102255.94;;;22.14;52.42
69245;BME280;56357;52.304;4.870;2023-05-23T02:07:28;102253.63;;;22.06;52.02
69245;BME280;56357;52.304;4.870;2023-05-23T02:09:54;102264.13;;;22.15;51.91
69245;BME280;56357;52.304;4.870;2023-05-23T02:12:21;102268.94;;;22.15;51.89
69245;BME280;56357;52.304;4.870;2023-05-23T02:14:48;102272.88;;;22.14;51.80
69245;BME280;56357;52.304;4.870;2023-05-23T02:17:16;102274.53;;;22.05;52.63
69245;BME280;56357;52.304;4.870;2023-05-23T02:19:42;102273.44;;;22.16;52.16
69245;BME280;56357;52.304;4.870;2023-05-23T02:22:09;102285.25;;;22.08;52.08
69245;BME280;56357;52.304;4.870;2023-05-23T02:24:35;102277.91;;;22.07;51.81
69245;BME280;56357;52.304;4.870;2023-05-23T02:27:02;102283.78;;;22.00;52.45
69245;BME280;56357;52.304;4.870;2023-05-23T02:29:28;102286.91;;;22.04;51.98
69245;BME280;56357;52.304;4.870;2023-05-23T02:31:55;102285.25;;;22.08;51.70
69245;BME280;56357;52.304;4.870;2023-05-23T02:34:21;102289.72;;;22.04;51.98
69245;BME280;56357;52.304;4.870;2023-05-23T02:36:47;102291.97;;;22.02;51.79
69245;BME280;56357;52.304;4.870;2023-05-23T02:39:15;102287.44;;;21.96;51.82
69245;BME280;56357;52.304;4.870;2023-05-23T02:41:42;102296.50;;;22.03;52.19
69245;BME280;56357;52.304;4.870;2023-05-23T02:44:09;102304.13;;;22.02;51.94
69245;BME280;56357;52.304;4.870;2023-05-23T02:46:35;102301.56;;;22.01;51.21
69245;BME280;56357;52.304;4.870;2023-05-23T02:49:02;102305.50;;;22.00;51.80
69245;BME280;56357;52.304;4.870;2023-05-23T02:51:28;102303.91;;;22.09;51.26
69245;BME280;56357;52.304;4.870;2023-05-23T02:53:56;102306.63;;;21.94;51.31
69245;BME280;56357;52.304;4.870;2023-05-23T02:56:22;102302.94;;;21.93;52.35
69245;BME280;56357;52.304;4.870;2023-05-23T02:58:50;102302.69;;;22.00;51.56
69245;BME280;56357;52.304;4.870;2023-05-23T03:01:18;102312.63;;;22.07;51.27
69245;BME280;56357;52.304;4.870;2023-05-23T03:03:44;102310.06;;;22.06;51.39
69245;BME280;56357;52.304;4.870;2023-05-23T03:06:11;102308.56;;;21.88;51.45
69245;BME280;56357;52.304;4.870;2023-05-23T03:08:42;102310.25;;;21.89;51.41
69245;BME280;56357;52.304;4.870;2023-05-23T03:11:08;102310.53;;;21.88;51.31
69245;BME280;56357;52.304;4.870;2023-05-23T03:13:35;102311.94;;;21.90;51.42
69245;BME280;56357;52.304;4.870;2023-05-23T03:16:01;102315.03;;;21.89;50.78
69245;BME280;56357;52.304;4.870;2023-05-23T03:18:28;102312.38;;;21.77;51.55
69245;BME280;56357;52.304;4.870;2023-05-23T03:20:54;102322.59;;;21.83;51.40
69245;BME280;56357;52.304;4.870;2023-05-23T03:23:21;102317.53;;;21.80;51.62
69245;BME280;56357;52.304;4.870;2023-05-23T03:25:48;102325.44;;;21.83;51.68
69245;BME280;56357;52.304;4.870;2023-05-23T03:28:14;102326.00;;;21.85;51.41
69245;BME280;56357;52.304;4.870;2023-05-23T03:30:41;102324.31;;;21.84;50.68
69245;BME280;56357;52.304;4.870;2023-05-23T03:33:07;102327.81;;;21.69;51.98
69245;BME280;56357;52.304;4.870;2023-05-23T03:35:34;102328.97;;;21.73;51.23
69245;BME280;56357;52.304;4.870;2023-05-23T03:38:00;102331.78;;;21.68;50.83
69245;BME280;56357;52.304;4.870;2023-05-23T03:40:27;102327.38;;;21.82;50.67
69245;BME280;56357;52.304;4.870;2023-05-23T03:43:04;102341.41;;;21.72;50.86
69245;BME280;56357;52.304;4.870;2023-05-23T03:45:31;102350.84;;;21.56;51.03
69245;BME280;56357;52.304;4.870;2023-05-23T03:47:58;102338.50;;;21.67;50.88
69245;BME280;56357;52.304;4.870;2023-05-23T03:50:25;102342.47;;;21.66;50.95
69245;BME280;56357;52.304;4.870;2023-05-23T03:52:53;102345.38;;;21.76;50.44
69245;BME280;56357;52.304;4.870;2023-05-23T03:55:20;102343.56;;;21.65;50.96
69245;BME280;56357;52.304;4.870;2023-05-23T03:57:49;102345.88;;;21.68;51.20
69245;BME280;56357;52.304;4.870;2023-05-23T04:00:16;102357.09;;;21.63;51.07
69245;BME280;56357;52.304;4.870;2023-05-23T04:02:44;102351.22;;;21.65;50.74
69245;BME280;56357;52.304;4.870;2023-05-23T04:05:11;102355.50;;;21.72;50.48
69245;BME280;56357;52.304;4.870;2023-05-23T04:07:38;102353.66;;;21.56;50.65
69245;BME280;56357;52.304;4.870;2023-05-23T04:10:06;102358.81;;;21.64;50.79
69245;BME280;56357;52.304;4.870;2023-05-23T04:12:33;102363.31;;;21.65;50.86
69245;BME280;56357;52.304;4.870;2023-05-23T04:14:59;102364.13;;;21.61;51.26
69245;BME280;56357;52.304;4.870;2023-05-23T04:17:26;102370.56;;;21.56;50.35
69245;BME280;56357;52.304;4.870;2023-05-23T04:19:55;102372.53;;;21.56;50.33
69245;BME280;56357;52.304;4.870;2023-05-23T04:22:21;102378.16;;;21.56;50.49
69245;BME280;56357;52.304;4.870;2023-05-23T04:24:48;102381.06;;;21.61;50.81
69245;BME280;56357;52.304;4.870;2023-05-23T04:27:14;102385.78;;;21.55;49.70
69245;BME280;56357;52.304;4.870;2023-05-23T04:29:41;102384.56;;;21.46;50.04
69245;BME280;56357;52.304;4.870;2023-05-23T04:32:08;102389.59;;;21.44;50.34
69245;BME280;56357;52.304;4.870;2023-05-23T04:34:35;102391.69;;;21.54;49.84
69245;BME280;56357;52.304;4.870;2023-05-23T04:37:02;102394.78;;;21.52;51.41
69245;BME280;56357;52.304;4.870;2023-05-23T04:39:29;102395.41;;;21.86;48.88
69245;BME280;56357;52.304;4.870;2023-05-23T04:41:55;102402.63;;;21.50;49.67
69245;BME280;56357;52.304;4.870;2023-05-23T04:44:22;102397.25;;;21.44;48.93
69245;BME280;56357;52.304;4.870;2023-05-23T04:46:50;102403.69;;;21.44;49.16
69245;BME280;56357;52.304;4.870;2023-05-23T04:49:17;102397.31;;;21.27;49.21
69245;BME280;56357;52.304;4.870;2023-05-23T04:51:45;102405.91;;;21.37;49.19
69245;BME280;56357;52.304;4.870;2023-05-23T04:54:12;102397.63;;;21.31;49.10
69245;BME280;56357;52.304;4.870;2023-05-23T04:56:38;102415.34;;;21.26;49.17
69245;BME280;56357;52.304;4.870;2023-05-23T04:59:04;102403.13;;;21.42;49.84
69245;BME280;56357;52.304;4.870;2023-05-23T05:01:32;102410.09;;;21.35;49.08
69245;BME280;56357;52.304;4.870;2023-05-23T05:03:59;102422.31;;;21.19;49.50
69245;BME280;56357;52.304;4.870;2023-05-23T05:06:25;102422.75;;;21.32;49.43
69245;BME280;56357;52.304;4.870;2023-05-23T05:08:52;102425.50;;;21.27;49.02
69245;BME280;56357;52.304;4.870;2023-05-23T05:11:19;102427.22;;;21.28;49.92
69245;BME280;56357;52.304;4.870;2023-05-23T05:13:46;102424.63;;;21.27;49.38
69245;BME280;56357;52.304;4.870;2023-05-23T05:16:12;102433.59;;;21.45;49.29
69245;BME280;56357;52.304;4.870;2023-05-23T05:18:39;102432.75;;;21.45;49.60
69245;BME280;56357;52.304;4.870;2023-05-23T05:21:05;102436.25;;;21.30;49.91
69245;BME280;56357;52.304;4.870;2023-05-23T05:23:32;102439.00;;;21.25;49.75
69245;BME280;56357;52.304;4.870;2023-05-23T05:25:58;102439.53;;;21.22;49.81
69245;BME280;56357;52.304;4.870;2023-05-23T05:28:25;102445.78;;;21.03;49.19
69245;BME280;56357;52.304;4.870;2023-05-23T05:30:52;102441.69;;;21.15;49.12
69245;BME280;56357;52.304;4.870;2023-05-23T05:33:21;102448.91;;;21.06;48.81
69245;BME280;56357;52.304;4.870;2023-05-23T05:35:49;102454.22;;;21.24;49.67
69245;BME280;56357;52.304;4.870;2023-05-23T05:38:16;102468.09;;;21.31;49.23
69245;BME280;56357;52.304;4.870;2023-05-23T05:40:43;102469.41;;;21.23;49.99
69245;BME280;56357;52.304;4.870;2023-05-23T05:43:09;102465.34;;;21.14;49.84
69245;BME280;56357;52.304;4.870;2023-05-23T05:45:36;102467.19;;;21.25;50.70
69245;BME280;56357;52.304;4.870;2023-05-23T05:48:04;102465.34;;;21.14;51.00
69245;BME280;56357;52.304;4.870;2023-05-23T05:50:30;102468.34;;;21.29;50.78
69245;BME280;56357;52.304;4.870;2023-05-23T05:52:57;102463.25;;;21.26;51.08
69245;BME280;56357;52.304;4.870;2023-05-23T05:55:23;102474.84;;;21.30;50.95
69245;BME280;56357;52.304;4.870;2023-05-23T05:57:50;102472.81;;;21.25;51.23
69245;BME280;56357;52.304;4.870;2023-05-23T06:00:16;102477.59;;;21.25;51.81
69245;BME280;56357;52.304;4.870;2023-05-23T06:02:44;102469.84;;;21.37;51.08
69245;BME280;56357;52.304;4.870;2023-05-23T06:05:13;102471.94;;;21.25;50.78
69245;BME280;56357;52.304;4.870;2023-05-23T06:07:43;102478.44;;;21.25;51.44
69245;BME280;56357;52.304;4.870;2023-05-23T06:10:10;102486.72;;;21.10;50.70
69245;BME280;56357;52.304;4.870;2023-05-23T06:12:38;102482.22;;;21.09;51.15
69245;BME280;56357;52.304;4.870;2023-05-23T06:15:05;102491.75;;;21.30;50.64
69245;BME280;56357;52.304;4.870;2023-05-23T06:17:32;102492.41;;;21.15;50.48
69245;BME280;56357;52.304;4.870;2023-05-23T06:19:58;102496.28;;;20.92;50.86
69245;BME280;56357;52.304;4.870;2023-05-23T06:22:25;102497.22;;;20.98;50.91
69245;BME280;56357;52.304;4.870;2023-05-23T06:24:51;102498.63;;;21.17;50.59
69245;BME280;56357;52.304;4.870;2023-05-23T06:27:18;102497.91;;;21.27;49.83
69245;BME280;56357;52.304;4.870;2023-05-23T06:29:44;102493.34;;;21.21;49.93
69245;BME280;56357;52.304;4.870;2023-05-23T06:32:11;102492.63;;;21.30;49.62
69245;BME280;56357;52.304;4.870;2023-05-23T06:34:37;102493.59;;;21.19;50.10
69245;BME280;56357;52.304;4.870;2023-05-23T06:37:04;102495.91;;;21.22;49.59
69245;BME280;56357;52.304;4.870;2023-05-23T06:39:30;102489.22;;;21.28;49.53
69245;BME280;56357;52.304;4.870;2023-05-23T06:41:56;102494.72;;;21.40;49.05
69245;BME280;56357;52.304;4.870;2023-05-23T06:44:23;102490.31;;;21.49;48.64
69245;BME280;56357;52.304;4.870;2023-05-23T06:46:50;102492.22;;;21.43;48.63
69245;BME280;56357;52.304;4.870;2023-05-23T06:49:22;102491.59;;;21.63;49.45
69245;BME280;56357;52.304;4.870;2023-05-23T06:51:49;102493.41;;;21.47;48.74
69245;BME280;56357;52.304;4.870;2023-05-23T06:54:15;102498.34;;;21.62;49.14
69245;BME280;56357;52.304;4.870;2023-05-23T06:56:42;102493.59;;;21.41;48.96
69245;BME280;56357;52.304;4.870;2023-05-23T06:59:08;102508.66;;;21.51;49.27
69245;BME280;56357;52.304;4.870;2023-05-23T07:01:35;102501.25;;;21.45;47.94
69245;BME280;56357;52.304;4.870;2023-05-23T07:04:02;102516.03;;;21.57;48.47
69245;BME280;56357;52.304;4.870;2023-05-23T07:06:28;102500.31;;;21.61;47.45
69245;BME280;56357;52.304;4.870;2023-05-23T07:08:55;102510.19;;;21.37;48.12
69245;BME280;56357;52.304;4.870;2023-05-23T07:11:21;102515.28;;;21.40;47.91
69245;BME280;56357;52.304;4.870;2023-05-23T07:13:48;102516.44;;;21.44;47.80
69245;BME280;56357;52.304;4.870;2023-05-23T07:16:14;102518.88;;;21.57;47.14
69245;BME280;56357;52.304;4.870;2023-05-23T07:18:41;102515.47;;;21.55;47.23
69245;BME280;56357;52.304;4.870;2023-05-23T07:21:07;102511.34;;;21.63;46.68
69245;BME280;56357;52.304;4.870;2023-05-23T07:23:34;102527.56;;;21.77;47.40
69245;BME280;56357;52.304;4.870;2023-05-23T07:26:01;102518.44;;;21.92;46.69
69245;BME280;56357;52.304;4.870;2023-05-23T07:28:27;102523.25;;;21.92;46.65
69245;BME280;56357;52.304;4.870;2023-05-23T07:30:54;102524.59;;;21.84;46.64
69245;BME280;56357;52.304;4.870;2023-05-23T07:33:22;102529.81;;;21.75;46.49
69245;BME280;56357;52.304;4.870;2023-05-23T07:35:48;102525.50;;;21.90;46.33
69245;BME280;56357;52.304;4.870;2023-05-23T07:38:15;102529.09;;;21.85;46.23
69245;BME280;56357;52.304;4.870;2023-05-23T07:40:41;102530.00;;;21.91;46.27
69245;BME280;56357;52.304;4.870;2023-05-23T07:43:07;102535.72;;;21.96;45.16
69245;BME280;56357;52.304;4.870;2023-05-23T07:45:34;102537.78;;;22.05;45.56
69245;BME280;56357;52.304;4.870;2023-05-23T07:48:00;102539.44;;;22.01;45.32
69245;BME280;56357;52.304;4.870;2023-05-23T07:50:27;102552.63;;;21.96;45.98
69245;BME280;56357;52.304;4.870;2023-05-23T07:52:56;102542.13;;;22.18;44.85
69245;BME280;56357;52.304;4.870;2023-05-23T07:55:23;102535.91;;;22.16;45.44
69245;BME280;56357;52.304;4.870;2023-05-23T07:57:50;102552.31;;;22.19;45.42
69245;BME280;56357;52.304;4.870;2023-05-23T08:00:19;102538.34;;;22.34;45.35
69245;BME280;56357;52.304;4.870;2023-05-23T08:02:45;102534.63;;;22.28;44.66
69245;BME280;56357;52.304;4.870;2023-05-23T08:05:12;102540.84;;;22.30;44.83
69245;BME280;56357;52.304;4.870;2023-05-23T08:07:38;102544.97;;;22.23;44.66
69245;BME280;56357;52.304;4.870;2023-05-23T08:10:05;102553.72;;;22.21;44.76
69245;BME280;56357;52.304;4.870;2023-05-23T08:12:32;102554.63;;;22.00;45.68
69245;BME280;56357;52.304;4.870;2023-05-23T08:14:58;102551.31;;;22.03;44.59
69245;BME280;56357;52.304;4.870;2023-05-23T08:17:25;102555.69;;;22.21;44.76
69245;BME280;56357;52.304;4.870;2023-05-23T08:19:52;102550.13;;;22.57;44.70
69245;BME280;56357;52.304;4.870;2023-05-23T08:22:18;102558.81;;;22.51;44.00
69245;BME280;56357;52.304;4.870;2023-05-23T08:24:45;102559.41;;;22.53;44.87
69245;BME280;56357;52.304;4.870;2023-05-23T08:27:12;102560.34;;;22.32;44.32
69245;BME280;56357;52.304;4.870;2023-05-23T08:29:38;102558.78;;;22.19;45.07
69245;BME280;56357;52.304;4.870;2023-05-23T08:32:05;102568.16;;;22.25;45.33
69245;BME280;56357;52.304;4.870;2023-05-23T08:34:32;102565.16;;;22.36;44.25
69245;BME280;56357;52.304;4.870;2023-05-23T08:36:58;102559.03;;;22.44;43.85
69245;BME280;56357;52.304;4.870;2023-05-23T08:39:25;102553.16;;;22.51;43.98
69245;BME280;56357;52.304;4.870;2023-05-23T08:41:51;102555.78;;;22.57;43.41
69245;BME280;56357;52.304;4.870;2023-05-23T08:44:18;102559.28;;;22.69;43.28
69245;BME280;56357;52.304;4.870;2023-05-23T08:46:45;102569.72;;;22.69;43.00
69245;BME280;56357;52.304;4.870;2023-05-23T08:49:16;102559.53;;;22.68;43.12
69245;BME280;56357;52.304;4.870;2023-05-23T08:51:43;102559.16;;;22.91;43.54
69245;BME280;56357;52.304;4.870;2023-05-23T08:54:10;102561.09;;;22.86;42.61
69245;BME280;56357;52.304;4.870;2023-05-23T08:56:38;102568.53;;;23.02;42.96
69245;BME280;56357;52.304;4.870;2023-05-23T08:59:07;102578.81;;;23.18;42.06
69245;BME280;56357;52.304;4.870;2023-05-23T09:01:34;102571.94;;;23.04;42.71
69245;BME280;56357;52.304;4.870;2023-05-23T09:04:01;102564.81;;;22.96;42.88
69245;BME280;56357;52.304;4.870;2023-05-23T09:06:29;102576.81;;;22.77;43.17
69245;BME280;56357;52.304;4.870;2023-05-23T09:08:56;102588.75;;;22.84;44.15
69245;BME280;56357;52.304;4.870;2023-05-23T09:11:23;102583.25;;;22.67;43.31
69245;BME280;56357;52.304;4.870;2023-05-23T09:13:50;102584.47;;;22.76;43.83
69245;BME280;56357;52.304;4.870;2023-05-23T09:16:17;102581.38;;;22.78;43.14
69245;BME280;56357;52.304;4.870;2023-05-23T09:18:44;102581.66;;;22.76;42.61
69245;BME280;56357;52.304;4.870;2023-05-23T09:21:12;102589.34;;;22.86;42.86
69245;BME280;56357;52.304;4.870;2023-05-23T09:23:40;102592.28;;;23.01;43.27
69245;BME280;56357;52.304;4.870;2023-05-23T09:26:08;102591.69;;;22.99;42.60
69245;BME280;56357;52.304;4.870;2023-05-23T09:28:36;102585.16;;;22.93;43.81
69245;BME280;56357;52.304;4.870;2023-05-23T09:31:05;102596.19;;;22.95;44.14
69245;BME280;56357;52.304;4.870;2023-05-23T09:36:08;102606.03;;;22.87;43.05
69245;BME280;56357;52.304;4.870;2023-05-23T09:38:39;102602.63;;;22.85;42.83
69245;BME280;56357;52.304;4.870;2023-05-23T09:41:07;102603.19;;;22.87;42.92
69245;BME280;56357;52.304;4.870;2023-05-23T09:43:37;102610.28;;;22.90;42.57
69245;BME280;56357;52.304;4.870;2023-05-23T09:46:08;102606.00;;;22.82;43.36
69245;BME280;56357;52.304;4.870;2023-05-23T09:48:36;102611.00;;;22.75;42.99
69245;BME280;56357;52.304;4.870;2023-05-23T09:51:04;102617.25;;;22.77;42.81
69245;BME280;56357;52.304;4.870;2023-05-23T09:53:31;102611.06;;;22.80;43.31
69245;BME280;56357;52.304;4.870;2023-05-23T09:55:58;102608.03;;;22.92;43.19
69245;BME280;56357;52.304;4.870;2023-05-23T09:58:26;102606.72;;;23.04;42.42
69245;BME280;56357;52.304;4.870;2023-05-23T10:00:55;102610.78;;;23.23;42.19
69245;BME280;56357;52.304;4.870;2023-05-23T10:03:38;102608.38;;;23.00;42.74
69245;BME280;56357;52.304;4.870;2023-05-23T10:06:09;102617.91;;;22.89;42.77
69245;BME280;56357;52.304;4.870;2023-05-23T10:08:43;102619.34;;;22.92;42.97
69245;BME280;56357;52.304;4.870;2023-05-23T10:14:03;102625.31;;;22.95;43.07
69245;BME280;56357;52.304;4.870;2023-05-23T10:19:42;102620.94;;;22.83;43.42
69245;BME280;56357;52.304;4.870;2023-05-23T10:22:09;102626.38;;;22.89;42.98
69245;BME280;56357;52.304;4.870;2023-05-23T10:24:37;102632.25;;;22.83;42.22
69245;BME280;56357;52.304;4.870;2023-05-23T10:27:05;102634.28;;;22.87;42.68
69245;BME280;56357;52.304;4.870;2023-05-23T10:29:32;102634.19;;;22.77;42.75
69245;BME280;56357;52.304;4.870;2023-05-23T10:32:00;102626.38;;;22.89;42.71
69245;BME280;56357;52.304;4.870;2023-05-23T10:38:03;102635.25;;;22.71;42.76
69245;BME280;56357;52.304;4.870;2023-05-23T10:43:31;102624.91;;;22.82;43.02
69245;BME280;56357;52.304;4.870;2023-05-23T10:45:59;102639.31;;;22.80;42.42
69245;BME280;56357;52.304;4.870;2023-05-23T10:51:12;102632.91;;;22.90;42.96
69245;BME280;56357;52.304;4.870;2023-05-23T10:53:44;102633.13;;;22.88;42.52
69245;BME280;56357;52.304;4.870;2023-05-23T10:56:19;102631.16;;;22.89;43.28
69245;BME280;56357;52.304;4.870;2023-05-23T10:58:51;102627.31;;;23.00;42.36
69245;BME280;56357;52.304;4.870;2023-05-23T11:01:19;102641.22;;;23.06;42.13
69245;BME280;56357;52.304;4.870;2023-05-23T11:06:40;102640.03;;;22.97;41.96
69245;BME280;56357;52.304;4.870;2023-05-23T11:09:13;102637.81;;;23.04;41.86
69245;BME280;56357;52.304;4.870;2023-05-23T11:16:58;102627.00;;;22.96;42.31
69245;BME280;56357;52.304;4.870;2023-05-23T11:19:28;102628.22;;;23.05;42.69
69245;BME280;56357;52.304;4.870;2023-05-23T11:21:57;102632.75;;;23.11;42.47
69245;BME280;56357;52.304;4.870;2023-05-23T11:24:47;102637.53;;;23.06;41.76
69245;BME280;56357;52.304;4.870;2023-05-23T11:27:15;102635.56;;;23.11;41.96
69245;BME280;56357;52.304;4.870;2023-05-23T11:29:54;102646.06;;;23.11;42.50
69245;BME280;56357;52.304;4.870;2023-05-23T11:32:22;102634.63;;;22.96;42.79
69245;BME280;56357;52.304;4.870;2023-05-23T11:34:48;102647.91;;;22.95;42.03
69245;BME280;56357;52.304;4.870;2023-05-23T11:37:15;102638.34;;;23.01;41.76
69245;BME280;56357;52.304;4.870;2023-05-23T11:39:42;102641.47;;;23.05;41.32
69245;BME280;56357;52.304;4.870;2023-05-23T11:42:09;102629.25;;;22.94;42.19
69245;BME280;56357;52.304;4.870;2023-05-23T11:44:35;102628.97;;;22.96;41.10
69245;BME280;56357;52.304;4.870;2023-05-23T11:47:05;102639.53;;;23.10;41.42
69245;BME280;56357;52.304;4.870;2023-05-23T11:49:35;102639.75;;;22.99;42.11
69245;BME280;56357;52.304;4.870;2023-05-23T11:52:03;102641.56;;;22.78;41.40
69245;BME280;56357;52.304;4.870;2023-05-23T11:54:30;102639.66;;;22.89;41.45
69245;BME280;56357;52.304;4.870;2023-05-23T11:56:57;102636.53;;;22.90;42.51
69245;BME280;56357;52.304;4.870;2023-05-23T11:59:25;102638.19;;;22.81;41.70
69245;BME280;56357;52.304;4.870;2023-05-23T12:01:52;102643.84;;;22.86;42.04
69245;BME280;56357;52.304;4.870;2023-05-23T12:04:19;102638.19;;;22.81;42.48
69245;BME280;56357;52.304;4.870;2023-05-23T12:06:47;102649.91;;;22.63;42.53
69245;BME280;56357;52.304;4.870;2023-05-23T12:09:14;102646.66;;;22.81;43.04
69245;BME280;56357;52.304;4.870;2023-05-23T12:11:42;102637.78;;;22.99;42.34
69245;BME280;56357;52.304;4.870;2023-05-23T12:14:13;102636.22;;;23.18;40.83
69245;BME280;56357;52.304;4.870;2023-05-23T12:16:42;102635.28;;;23.08;41.54
69245;BME280;56357;52.304;4.870;2023-05-23T12:19:08;102642.91;;;23.07;41.14
69245;BME280;56357;52.304;4.870;2023-05-23T12:21:46;102651.91;;;22.99;41.39
69245;BME280;56357;52.304;4.870;2023-05-23T12:24:22;102644.53;;;22.98;41.73
69245;BME280;56357;52.304;4.870;2023-05-23T12:26:58;102654.06;;;22.87;42.32
69245;BME280;56357;52.304;4.870;2023-05-23T12:29:32;102651.03;;;22.99;40.89
69245;BME280;56357;52.304;4.870;2023-05-23T12:32:00;102646.88;;;23.11;40.78
69245;BME280;56357;52.304;4.870;2023-05-23T12:34:27;102646.84;;;23.01;40.06
69245;BME280;56357;52.304;4.870;2023-05-23T12:36:58;102646.09;;;23.21;42.00
69245;BME280;56357;52.304;4.870;2023-05-23T12:39:27;102643.25;;;23.16;41.44
69245;BME280;56357;52.304;4.870;2023-05-23T12:42:06;102661.47;;;22.98;41.29
69245;BME280;56357;52.304;4.870;2023-05-23T12:44:33;102663.72;;;22.96;40.11
69245;BME280;56357;52.304;4.870;2023-05-23T12:47:02;102655.44;;;23.21;40.56
69245;BME280;56357;52.304;4.870;2023-05-23T12:49:28;102650.06;;;23.20;39.84
69245;BME280;56357;52.304;4.870;2023-05-23T12:51:55;102644.50;;;23.30;39.57
69245;BME280;56357;52.304;4.870;2023-05-23T12:54:21;102644.59;;;23.03;41.44
69245;BME280;56357;52.304;4.870;2023-05-23T12:56:48;102660.41;;;23.04;41.00
69245;BME280;56357;52.304;4.870;2023-05-23T12:59:14;102659.56;;;23.04;40.18
69245;BME280;56357;52.304;4.870;2023-05-23T13:01:41;102665.69;;;22.96;40.72
69245;BME280;56357;52.304;4.870;2023-05-23T13:04:07;102651.47;;;23.17;41.17
69245;BME280;56357;52.304;4.870;2023-05-23T13:06:34;102661.00;;;23.06;40.71
69245;BME280;56357;52.304;4.870;2023-05-23T13:09:00;102657.47;;;22.89;40.95
69245;BME280;56357;52.304;4.870;2023-05-23T13:11:28;102652.22;;;23.08;40.70
69245;BME280;56357;52.304;4.870;2023-05-23T13:13:55;102659.53;;;22.99;41.34
69245;BME280;56357;52.304;4.870;2023-05-23T13:16:22;102663.66;;;23.23;40.56
69245;BME280;56357;52.304;4.870;2023-05-23T13:18:48;102660.66;;;23.34;40.83
69245;BME280;56357;52.304;4.870;2023-05-23T13:21:15;102661.22;;;23.36;40.39
69245;BME280;56357;52.304;4.870;2023-05-23T13:23:41;102657.75;;;23.24;38.92